sensor_id;sensor_type;location;lat;lon;timestamp;temperature;humidity
18147;DHT22;9199;48.832;9.182;2022-09-01T00:02:14;14.80;99.90
18147;DHT22;9199;48.832;9.182;2022-09-01T00:04:43;14.70;99.90
18147;DHT22;9199;48.832;9.182;2022-09-01T00:07:12;14.70;99.90
18147;DHT22;9199;48.832;9.182;2022-09-01T00:09:39;14.70;99.90
18147;DHT22;9199;48.832;9.182;2022-09-01T00:12:08;14.70;99.90
18147;DHT22;9199;48.832;9.182;2022-09-01T00:14:38;14.70;99.90
18147;DHT22;9199;48.832;9.182;2022-09-01T00:17:07;14.70;99.90
18147;DHT22;9199;48.832;9.182;2022-09-01T00:19:34;14.60;99.90
18147;DHT22;9199;48.832;9.182;2022-09-01T00:22:02;14.60;99.90
18147;DHT22;9199;48.832;9.182;2022-09-01T00:24:31;14.60;99.90
18147;DHT22;9199;48.832;9.182;2022-09-01T00:26:58;14.60;99.90
18147;DHT22;9199;48.832;9.182;2022-09-01T00:29:25;14.60;99.90
18147;DHT22;9199;48.832;9.182;2022-09-01T00:31:52;14.60;99.90
18147;DHT22;9199;48.832;9.182;2022-09-01T00:34:20;14.50;99.90
18147;DHT22;9199;48.832;9.182;2022-09-01T00:36:46;14.50;99.90
18147;DHT22;9199;48.832;9.182;2022-09-01T00:39:14;14.50;99.90
18147;DHT22;9199;48.832;9.182;2022-09-01T00:41:43;14.50;99.90
18147;DHT22;9199;48.832;9.182;2022-09-01T00:44:14;14.40;99.90
18147;DHT22;9199;48.832;9.182;2022-09-01T00:46:43;14.50;99.90
18147;DHT22;9199;48.832;9.182;2022-09-01T00:49:13;14.50;99.90
18147;DHT22;9199;48.832;9.182;2022-09-01T00:51:45;14.40;99.90
18147;DHT22;9199;48.832;9.182;2022-09-01T00:54:18;14.40;99.90
18147;DHT22;9199;48.832;9.182;2022-09-01T00:56:47;14.40;99.90
18147;DHT22;9199;48.832;9.182;2022-09-01T00:59:16;14.40;99.90
18147;DHT22;9199;48.832;9.182;2022-09-01T01:01:44;14.40;99.90
18147;DHT22;9199;48.832;9.182;2022-09-01T01:04:10;14.40;99.90
18147;DHT22;9199;48.832;9.182;2022-09-01T01:06:40;14.40;99.90
18147;DHT22;9199;48.832;9.182;2022-09-01T01:09:08;14.40;99.90
18147;DHT22;9199;48.832;9.182;2022-09-01T01:11:35;14.40;99.90
18147;DHT22;9199;48.832;9.182;2022-09-01T01:14:06;14.40;99.90
18147;DHT22;9199;48.832;9.182;2022-09-01T01:16:37;14.40;99.90
18147;DHT22;9199;48.832;9.182;2022-09-01T01:19:06;14.30;99.90
18147;DHT22;9199;48.832;9.182;2022-09-01T01:21:55;14.30;99.90
18147;DHT22;9199;48.832;9.182;2022-09-01T01:24:41;14.30;99.90
18147;DHT22;9199;48.832;9.182;2022-09-01T01:27:08;14.30;99.90
18147;DHT22;9199;48.832;9.182;2022-09-01T01:29:36;14.20;99.90
18147;DHT22;9199;48.832;9.182;2022-09-01T01:32:05;14.30;99.90
18147;DHT22;9199;48.832;9.182;2022-09-01T01:34:36;14.30;99.90
18147;DHT22;9199;48.832;9.182;2022-09-01T01:37:04;14.20;99.90
18147;DHT22;9199;48.832;9.182;2022-09-01T01:39:31;14.20;99.90
18147;DHT22;9199;48.832;9.182;2022-09-01T01:41:59;14.20;99.90
18147;DHT22;9199;48.832;9.182;2022-09-01T01:44:26;14.10;99.90
18147;DHT22;9199;48.832;9.182;2022-09-01T01:46:55;14.10;99.90
18147;DHT22;9199;48.832;9.182;2022-09-01T01:49:26;14.10;99.90
18147;DHT22;9199;48.832;9.182;2022-09-01T01:51:55;14.00;99.90
18147;DHT22;9199;48.832;9.182;2022-09-01T01:54:23;14.10;99.90
18147;DHT22;9199;48.832;9.182;2022-09-01T01:56:51;14.10;99.90
18147;DHT22;9199;48.832;9.182;2022-09-01T01:59:20;14.10;99.90
18147;DHT22;9199;48.832;9.182;2022-09-01T02:01:49;14.10;99.90
18147;DHT22;9199;48.832;9.182;2022-09-01T02:04:18;14.00;99.90
18147;DHT22;9199;48.832;9.182;2022-09-01T02:06:46;13.90;99.90
18147;DHT22;9199;48.832;9.182;2022-09-01T02:09:14;14.00;99.90
18147;DHT22;9199;48.832;9.182;2022-09-01T02:11:42;14.00;99.90
18147;DHT22;9199;48.832;9.182;2022-09-01T02:14:09;13.90;99.90
18147;DHT22;9199;48.832;9.182;2022-09-01T02:16:39;13.90;99.90
18147;DHT22;9199;48.832;9.182;2022-09-01T02:19:07;13.90;99.90
18147;DHT22;9199;48.832;9.182;2022-09-01T02:21:34;13.80;99.90
18147;DHT22;9199;48.832;9.182;2022-09-01T02:24:03;13.80;99.90
18147;DHT22;9199;48.832;9.182;2022-09-01T02:26:32;13.80;99.90
18147;DHT22;9199;48.832;9.182;2022-09-01T02:29:00;13.90;99.90
18147;DHT22;9199;48.832;9.182;2022-09-01T02:31:29;13.80;99.90
18147;DHT22;9199;48.832;9.182;2022-09-01T02:33:57;13.80;99.90
18147;DHT22;9199;48.832;9.182;2022-09-01T02:36:25;13.80;99.90
18147;DHT22;9199;48.832;9.182;2022-09-01T02:38:53;13.80;99.90
18147;DHT22;9199;48.832;9.182;2022-09-01T02:41:20;13.80;99.90
18147;DHT22;9199;48.832;9.182;2022-09-01T02:43:48;13.80;99.90
18147;DHT22;9199;48.832;9.182;2022-09-01T02:46:16;13.90;99.90
18147;DHT22;9199;48.832;9.182;2022-09-01T02:48:44;13.80;99.90
18147;DHT22;9199;48.832;9.182;2022-09-01T02:51:18;13.80;99.90
18147;DHT22;9199;48.832;9.182;2022-09-01T02:53:47;13.80;99.90
18147;DHT22;9199;48.832;9.182;2022-09-01T02:56:15;13.70;99.90
18147;DHT22;9199;48.832;9.182;2022-09-01T02:58:43;13.70;99.90
18147;DHT22;9199;48.832;9.182;2022-09-01T03:01:12;13.70;99.90
18147;DHT22;9199;48.832;9.182;2022-09-01T03:03:39;13.60;99.90
18147;DHT22;9199;48.832;9.182;2022-09-01T03:06:06;13.60;99.90
18147;DHT22;9199;48.832;9.182;2022-09-01T03:08:36;13.60;99.90
18147;DHT22;9199;48.832;9.182;2022-09-01T03:11:04;13.50;99.90
18147;DHT22;9199;48.832;9.182;2022-09-01T03:13:36;13.50;99.90
18147;DHT22;9199;48.832;9.182;2022-09-01T03:16:03;13.50;99.90
18147;DHT22;9199;48.832;9.182;2022-09-01T03:18:30;13.50;99.90
18147;DHT22;9199;48.832;9.182;2022-09-01T03:20:57;13.50;99.90
18147;DHT22;9199;48.832;9.182;2022-09-01T03:23:24;13.50;99.90
18147;DHT22;9199;48.832;9.182;2022-09-01T03:25:54;13.50;99.90
18147;DHT22;9199;48.832;9.182;2022-09-01T03:28:21;13.50;99.90
18147;DHT22;9199;48.832;9.182;2022-09-01T03:30:49;13.50;99.90
18147;DHT22;9199;48.832;9.182;2022-09-01T03:33:17;13.50;99.90
18147;DHT22;9199;48.832;9.182;2022-09-01T03:35:45;13.50;99.90
18147;DHT22;9199;48.832;9.182;2022-09-01T03:38:13;13.50;99.90
18147;DHT22;9199;48.832;9.182;2022-09-01T03:40:46;13.50;99.90
18147;DHT22;9199;48.832;9.182;2022-09-01T03:43:15;13.50;99.90
18147;DHT22;9199;48.832;9.182;2022-09-01T03:45:43;13.50;99.90
18147;DHT22;9199;48.832;9.182;2022-09-01T03:48:11;13.40;99.90
18147;DHT22;9199;48.832;9.182;2022-09-01T03:50:42;13.40;99.90
18147;DHT22;9199;48.832;9.182;2022-09-01T03:53:11;13.30;99.90
18147;DHT22;9199;48.832;9.182;2022-09-01T03:55:38;13.30;99.90
18147;DHT22;9199;48.832;9.182;2022-09-01T03:58:08;13.30;99.90
18147;DHT22;9199;48.832;9.182;2022-09-01T04:00:39;13.30;99.90
18147;DHT22;9199;48.832;9.182;2022-09-01T04:03:08;13.30;99.90
18147;DHT22;9199;48.832;9.182;2022-09-01T04:05:37;13.20;99.90
18147;DHT22;9199;48.832;9.182;2022-09-01T04:08:06;13.20;99.90
18147;DHT22;9199;48.832;9.182;2022-09-01T04:10:37;13.20;99.90
18147;DHT22;9199;48.832;9.182;2022-09-01T04:13:08;13.30;99.90
18147;DHT22;9199;48.832;9.182;2022-09-01T04:15:38;13.30;99.90
18147;DHT22;9199;48.832;9.182;2022-09-01T04:18:04;13.20;99.90
18147;DHT22;9199;48.832;9.182;2022-09-01T04:20:34;13.30;99.90
18147;DHT22;9199;48.832;9.182;2022-09-01T04:23:04;13.30;99.90
18147;DHT22;9199;48.832;9.182;2022-09-01T04:25:35;13.30;99.90
18147;DHT22;9199;48.832;9.182;2022-09-01T04:28:03;13.40;99.90
18147;DHT22;9199;48.832;9.182;2022-09-01T04:30:38;13.40;99.90
18147;DHT22;9199;48.832;9.182;2022-09-01T04:33:07;13.40;99.90
18147;DHT22;9199;48.832;9.182;2022-09-01T04:35:36;13.30;99.90
18147;DHT22;9199;48.832;9.182;2022-09-01T04:38:03;13.30;99.90
18147;DHT22;9199;48.832;9.182;2022-09-01T04:40:35;13.20;99.90
18147;DHT22;9199;48.832;9.182;2022-09-01T04:43:03;13.10;99.90
18147;DHT22;9199;48.832;9.182;2022-09-01T04:45:30;13.10;99.90
18147;DHT22;9199;48.832;9.182;2022-09-01T04:48:00;13.00;99.90
18147;DHT22;9199;48.832;9.182;2022-09-01T04:50:27;13.10;99.90
18147;DHT22;9199;48.832;9.182;2022-09-01T04:52:57;13.10;99.90
18147;DHT22;9199;48.832;9.182;2022-09-01T04:55:25;13.10;99.90
18147;DHT22;9199;48.832;9.182;2022-09-01T04:57:55;13.10;99.90
18147;DHT22;9199;48.832;9.182;2022-09-01T05:00:24;13.10;99.90
18147;DHT22;9199;48.832;9.182;2022-09-01T05:02:58;13.10;99.90
18147;DHT22;9199;48.832;9.182;2022-09-01T05:05:35;13.20;99.90
18147;DHT22;9199;48.832;9.182;2022-09-01T05:08:04;13.60;99.90
18147;DHT22;9199;48.832;9.182;2022-09-01T05:10:31;13.90;99.90
18147;DHT22;9199;48.832;9.182;2022-09-01T05:13:01;14.00;99.90
18147;DHT22;9199;48.832;9.182;2022-09-01T05:15:35;14.00;99.90
18147;DHT22;9199;48.832;9.182;2022-09-01T05:18:01;14.00;99.90
18147;DHT22;9199;48.832;9.182;2022-09-01T05:20:37;14.00;99.90
18147;DHT22;9199;48.832;9.182;2022-09-01T05:23:07;14.00;99.90
18147;DHT22;9199;48.832;9.182;2022-09-01T05:25:38;14.10;99.90
18147;DHT22;9199;48.832;9.182;2022-09-01T05:28:06;14.10;99.90
18147;DHT22;9199;48.832;9.182;2022-09-01T05:30:34;14.10;99.90
18147;DHT22;9199;48.832;9.182;2022-09-01T05:33:03;14.20;99.90
18147;DHT22;9199;48.832;9.182;2022-09-01T05:35:34;14.30;99.90
18147;DHT22;9199;48.832;9.182;2022-09-01T05:38:04;14.40;99.90
18147;DHT22;9199;48.832;9.182;2022-09-01T05:40:33;14.40;99.90
18147;DHT22;9199;48.832;9.182;2022-09-01T05:43:06;14.50;99.90
18147;DHT22;9199;48.832;9.182;2022-09-01T05:45:36;14.60;99.90
18147;DHT22;9199;48.832;9.182;2022-09-01T05:48:03;14.70;99.90
18147;DHT22;9199;48.832;9.182;2022-09-01T05:50:30;14.70;99.90
18147;DHT22;9199;48.832;9.182;2022-09-01T05:52:57;14.80;99.90
18147;DHT22;9199;48.832;9.182;2022-09-01T05:55:25;14.90;99.90
18147;DHT22;9199;48.832;9.182;2022-09-01T05:57:52;15.00;99.90
18147;DHT22;9199;48.832;9.182;2022-09-01T06:00:19;15.20;99.90
18147;DHT22;9199;48.832;9.182;2022-09-01T06:02:47;15.40;99.90
18147;DHT22;9199;48.832;9.182;2022-09-01T06:05:14;15.50;99.90
18147;DHT22;9199;48.832;9.182;2022-09-01T06:07:41;15.70;99.90
18147;DHT22;9199;48.832;9.182;2022-09-01T06:10:09;15.70;99.90
18147;DHT22;9199;48.832;9.182;2022-09-01T06:12:38;15.80;99.90
18147;DHT22;9199;48.832;9.182;2022-09-01T06:15:06;15.80;99.90
18147;DHT22;9199;48.832;9.182;2022-09-01T06:17:40;15.80;99.90
18147;DHT22;9199;48.832;9.182;2022-09-01T06:20:08;15.90;99.90
18147;DHT22;9199;48.832;9.182;2022-09-01T06:22:36;16.00;99.90
18147;DHT22;9199;48.832;9.182;2022-09-01T06:25:04;16.20;99.90
18147;DHT22;9199;48.832;9.182;2022-09-01T06:27:33;16.40;99.90
18147;DHT22;9199;48.832;9.182;2022-09-01T06:30:05;16.50;99.90
18147;DHT22;9199;48.832;9.182;2022-09-01T06:32:39;16.60;99.90
18147;DHT22;9199;48.832;9.182;2022-09-01T06:35:08;16.90;99.90
18147;DHT22;9199;48.832;9.182;2022-09-01T06:37:36;17.10;99.90
18147;DHT22;9199;48.832;9.182;2022-09-01T06:40:04;17.30;99.90
18147;DHT22;9199;48.832;9.182;2022-09-01T06:42:35;17.50;99.90
18147;DHT22;9199;48.832;9.182;2022-09-01T06:45:05;17.60;99.90
18147;DHT22;9199;48.832;9.182;2022-09-01T06:47:34;17.80;99.90
18147;DHT22;9199;48.832;9.182;2022-09-01T06:50:02;17.90;99.90
18147;DHT22;9199;48.832;9.182;2022-09-01T06:52:29;17.80;99.90
18147;DHT22;9199;48.832;9.182;2022-09-01T06:54:55;17.90;99.90
18147;DHT22;9199;48.832;9.182;2022-09-01T06:57:22;17.80;99.90
18147;DHT22;9199;48.832;9.182;2022-09-01T06:59:51;17.70;99.90
18147;DHT22;9199;48.832;9.182;2022-09-01T07:02:19;17.80;99.90
18147;DHT22;9199;48.832;9.182;2022-09-01T07:04:46;17.90;99.90
18147;DHT22;9199;48.832;9.182;2022-09-01T07:07:13;18.10;99.90
18147;DHT22;9199;48.832;9.182;2022-09-01T07:09:40;18.50;99.90
18147;DHT22;9199;48.832;9.182;2022-09-01T07:12:07;19.20;99.90
18147;DHT22;9199;48.832;9.182;2022-09-01T07:14:34;19.50;99.90
18147;DHT22;9199;48.832;9.182;2022-09-01T07:17:01;19.50;99.90
18147;DHT22;9199;48.832;9.182;2022-09-01T07:19:29;19.50;99.90
18147;DHT22;9199;48.832;9.182;2022-09-01T07:21:57;19.50;99.90
18147;DHT22;9199;48.832;9.182;2022-09-01T07:24:24;19.50;99.90
18147;DHT22;9199;48.832;9.182;2022-09-01T07:26:51;19.80;99.90
18147;DHT22;9199;48.832;9.182;2022-09-01T07:29:18;20.10;99.90
18147;DHT22;9199;48.832;9.182;2022-09-01T07:31:47;20.30;99.90
18147;DHT22;9199;48.832;9.182;2022-09-01T07:34:15;20.40;99.90
18147;DHT22;9199;48.832;9.182;2022-09-01T07:36:43;20.50;99.90
18147;DHT22;9199;48.832;9.182;2022-09-01T07:39:12;20.80;99.90
18147;DHT22;9199;48.832;9.182;2022-09-01T07:41:39;21.30;99.90
18147;DHT22;9199;48.832;9.182;2022-09-01T07:44:07;21.80;99.90
18147;DHT22;9199;48.832;9.182;2022-09-01T07:46:38;22.30;99.90
18147;DHT22;9199;48.832;9.182;2022-09-01T07:49:05;23.00;99.90
18147;DHT22;9199;48.832;9.182;2022-09-01T07:51:32;23.50;99.90
18147;DHT22;9199;48.832;9.182;2022-09-01T07:54:02;23.70;99.90
18147;DHT22;9199;48.832;9.182;2022-09-01T07:56:28;24.10;99.90
18147;DHT22;9199;48.832;9.182;2022-09-01T07:58:56;24.30;99.90
18147;DHT22;9199;48.832;9.182;2022-09-01T08:01:25;24.40;99.90
18147;DHT22;9199;48.832;9.182;2022-09-01T08:03:55;24.30;99.90
18147;DHT22;9199;48.832;9.182;2022-09-01T08:06:24;24.00;99.90
18147;DHT22;9199;48.832;9.182;2022-09-01T08:08:51;23.60;99.90
18147;DHT22;9199;48.832;9.182;2022-09-01T08:11:21;23.50;99.90
18147;DHT22;9199;48.832;9.182;2022-09-01T08:13:50;23.40;99.90
18147;DHT22;9199;48.832;9.182;2022-09-01T08:16:18;22.90;99.90
18147;DHT22;9199;48.832;9.182;2022-09-01T08:18:46;23.00;99.90
18147;DHT22;9199;48.832;9.182;2022-09-01T08:21:14;23.10;99.90
18147;DHT22;9199;48.832;9.182;2022-09-01T08:23:41;22.80;99.90
18147;DHT22;9199;48.832;9.182;2022-09-01T08:26:11;22.60;99.90
18147;DHT22;9199;48.832;9.182;2022-09-01T08:28:40;22.60;99.90
18147;DHT22;9199;48.832;9.182;2022-09-01T08:31:08;22.60;99.90
18147;DHT22;9199;48.832;9.182;2022-09-01T08:33:36;22.60;99.90
18147;DHT22;9199;48.832;9.182;2022-09-01T08:36:03;22.70;99.90
18147;DHT22;9199;48.832;9.182;2022-09-01T08:38:30;22.70;99.90
18147;DHT22;9199;48.832;9.182;2022-09-01T08:40:57;22.60;99.90
18147;DHT22;9199;48.832;9.182;2022-09-01T08:43:35;22.70;99.90
18147;DHT22;9199;48.832;9.182;2022-09-01T08:46:09;22.80;99.90
18147;DHT22;9199;48.832;9.182;2022-09-01T08:48:38;22.90;99.90
18147;DHT22;9199;48.832;9.182;2022-09-01T08:51:13;23.00;99.90
18147;DHT22;9199;48.832;9.182;2022-09-01T08:53:43;23.00;99.90
18147;DHT22;9199;48.832;9.182;2022-09-01T08:56:12;23.10;99.90
18147;DHT22;9199;48.832;9.182;2022-09-01T08:58:39;23.20;99.90
18147;DHT22;9199;48.832;9.182;2022-09-01T09:01:16;23.20;99.90
18147;DHT22;9199;48.832;9.182;2022-09-01T09:03:54;23.10;99.90
18147;DHT22;9199;48.832;9.182;2022-09-01T09:06:35;22.90;99.90
18147;DHT22;9199;48.832;9.182;2022-09-01T09:09:04;22.90;99.90
18147;DHT22;9199;48.832;9.182;2022-09-01T09:11:49;22.80;99.90
18147;DHT22;9199;48.832;9.182;2022-09-01T09:14:31;22.80;99.90
18147;DHT22;9199;48.832;9.182;2022-09-01T09:17:03;22.70;99.90
18147;DHT22;9199;48.832;9.182;2022-09-01T09:19:32;22.70;99.90
18147;DHT22;9199;48.832;9.182;2022-09-01T09:22:01;22.80;99.90
18147;DHT22;9199;48.832;9.182;2022-09-01T09:24:32;22.90;99.90
18147;DHT22;9199;48.832;9.182;2022-09-01T09:27:17;22.90;99.90
18147;DHT22;9199;48.832;9.182;2022-09-01T09:29:45;22.60;99.90
18147;DHT22;9199;48.832;9.182;2022-09-01T09:32:13;22.50;99.90
18147;DHT22;9199;48.832;9.182;2022-09-01T09:34:41;22.40;99.90
18147;DHT22;9199;48.832;9.182;2022-09-01T09:37:24;22.40;99.90
18147;DHT22;9199;48.832;9.182;2022-09-01T09:40:04;22.40;99.90
18147;DHT22;9199;48.832;9.182;2022-09-01T09:42:32;22.20;99.90
18147;DHT22;9199;48.832;9.182;2022-09-01T09:44:59;22.30;99.90
18147;DHT22;9199;48.832;9.182;2022-09-01T09:47:39;22.40;99.90
18147;DHT22;9199;48.832;9.182;2022-09-01T09:50:19;22.50;99.90
18147;DHT22;9199;48.832;9.182;2022-09-01T09:52:48;22.50;99.90
18147;DHT22;9199;48.832;9.182;2022-09-01T09:55:25;22.50;99.90
18147;DHT22;9199;48.832;9.182;2022-09-01T09:57:55;22.50;99.90
18147;DHT22;9199;48.832;9.182;2022-09-01T10:00:25;22.70;99.90
18147;DHT22;9199;48.832;9.182;2022-09-01T10:02:56;23.00;99.90
18147;DHT22;9199;48.832;9.182;2022-09-01T10:05:27;23.30;99.90
18147;DHT22;9199;48.832;9.182;2022-09-01T10:07:57;23.70;99.90
18147;DHT22;9199;48.832;9.182;2022-09-01T10:10:28;23.80;99.90
18147;DHT22;9199;48.832;9.182;2022-09-01T10:12:56;23.60;99.90
18147;DHT22;9199;48.832;9.182;2022-09-01T10:15:25;23.30;99.90
18147;DHT22;9199;48.832;9.182;2022-09-01T10:17:59;23.20;99.90
18147;DHT22;9199;48.832;9.182;2022-09-01T10:20:28;22.90;99.90
18147;DHT22;9199;48.832;9.182;2022-09-01T10:22:55;22.80;99.90
18147;DHT22;9199;48.832;9.182;2022-09-01T10:25:25;22.90;99.90
18147;DHT22;9199;48.832;9.182;2022-09-01T10:27:56;23.60;99.90
18147;DHT22;9199;48.832;9.182;2022-09-01T10:30:24;25.50;97.80
18147;DHT22;9199;48.832;9.182;2022-09-01T10:32:55;26.60;94.30
18147;DHT22;9199;48.832;9.182;2022-09-01T10:35:25;27.20;92.50
18147;DHT22;9199;48.832;9.182;2022-09-01T10:37:52;26.90;91.90
18147;DHT22;9199;48.832;9.182;2022-09-01T10:40:35;26.30;91.60
18147;DHT22;9199;48.832;9.182;2022-09-01T10:43:35;25.80;92.50
18147;DHT22;9199;48.832;9.182;2022-09-01T10:46:40;25.90;92.80
18147;DHT22;9199;48.832;9.182;2022-09-01T10:49:19;27.10;91.90
18147;DHT22;9199;48.832;9.182;2022-09-01T10:51:46;28.00;87.40
18147;DHT22;9199;48.832;9.182;2022-09-01T10:57:40;27.60;84.40
18147;DHT22;9199;48.832;9.182;2022-09-01T11:00:49;26.70;87.90
18147;DHT22;9199;48.832;9.182;2022-09-01T11:03:44;26.60;88.20
18147;DHT22;9199;48.832;9.182;2022-09-01T11:09:20;27.40;86.30
18147;DHT22;9199;48.832;9.182;2022-09-01T11:12:11;29.50;79.20
18147;DHT22;9199;48.832;9.182;2022-09-01T11:14:48;30.20;72.60
18147;DHT22;9199;48.832;9.182;2022-09-01T11:17:19;30.80;70.80
18147;DHT22;9199;48.832;9.182;2022-09-01T11:19:54;31.90;65.70
18147;DHT22;9199;48.832;9.182;2022-09-01T11:22:39;32.20;62.80
18147;DHT22;9199;48.832;9.182;2022-09-01T11:25:31;31.40;64.30
18147;DHT22;9199;48.832;9.182;2022-09-01T11:31:02;34.60;58.50
18147;DHT22;9199;48.832;9.182;2022-09-01T11:33:45;35.20;54.00
18147;DHT22;9199;48.832;9.182;2022-09-01T11:36:22;35.90;50.40
18147;DHT22;9199;48.832;9.182;2022-09-01T11:38:53;36.60;48.80
18147;DHT22;9199;48.832;9.182;2022-09-01T11:41:24;36.50;46.30
18147;DHT22;9199;48.832;9.182;2022-09-01T11:43:55;36.30;47.00
18147;DHT22;9199;48.832;9.182;2022-09-01T11:46:26;36.80;44.10
18147;DHT22;9199;48.832;9.182;2022-09-01T11:48:55;36.50;44.20
18147;DHT22;9199;48.832;9.182;2022-09-01T11:51:23;36.20;45.60
18147;DHT22;9199;48.832;9.182;2022-09-01T11:53:51;36.40;43.70
18147;DHT22;9199;48.832;9.182;2022-09-01T11:56:26;36.30;43.90
18147;DHT22;9199;48.832;9.182;2022-09-01T11:58:53;36.60;43.60
18147;DHT22;9199;48.832;9.182;2022-09-01T12:01:22;35.50;43.20
18147;DHT22;9199;48.832;9.182;2022-09-01T12:03:56;34.90;46.10
18147;DHT22;9199;48.832;9.182;2022-09-01T12:06:25;35.60;44.80
18147;DHT22;9199;48.832;9.182;2022-09-01T12:08:56;36.20;45.10
18147;DHT22;9199;48.832;9.182;2022-09-01T12:11:27;36.80;44.10
18147;DHT22;9199;48.832;9.182;2022-09-01T12:13:58;37.90;42.30
18147;DHT22;9199;48.832;9.182;2022-09-01T12:16:26;38.00;42.60
18147;DHT22;9199;48.832;9.182;2022-09-01T12:18:55;38.80;40.70
18147;DHT22;9199;48.832;9.182;2022-09-01T12:21:26;38.90;39.80
18147;DHT22;9199;48.832;9.182;2022-09-01T12:23:54;39.20;39.40
18147;DHT22;9199;48.832;9.182;2022-09-01T12:26:37;38.70;37.90
18147;DHT22;9199;48.832;9.182;2022-09-01T12:29:04;39.30;38.20
18147;DHT22;9199;48.832;9.182;2022-09-01T12:31:32;38.50;38.00
18147;DHT22;9199;48.832;9.182;2022-09-01T12:33:59;38.30;38.30
18147;DHT22;9199;48.832;9.182;2022-09-01T12:36:31;37.90;38.60
18147;DHT22;9199;48.832;9.182;2022-09-01T12:39:21;37.30;39.50
18147;DHT22;9199;48.832;9.182;2022-09-01T12:42:04;37.70;39.40
18147;DHT22;9199;48.832;9.182;2022-09-01T12:44:33;38.10;38.00
18147;DHT22;9199;48.832;9.182;2022-09-01T12:47:03;37.80;38.70
18147;DHT22;9199;48.832;9.182;2022-09-01T12:49:37;38.00;37.70
18147;DHT22;9199;48.832;9.182;2022-09-01T12:52:16;38.60;37.90
18147;DHT22;9199;48.832;9.182;2022-09-01T12:54:47;39.50;36.40
18147;DHT22;9199;48.832;9.182;2022-09-01T12:57:24;40.40;35.20
18147;DHT22;9199;48.832;9.182;2022-09-01T13:00:12;40.90;34.60
18147;DHT22;9199;48.832;9.182;2022-09-01T13:02:42;40.90;34.40
